createdAt,value
2018-10-18T00:00:34.617Z,22.60
2018-10-18T00:01:12.087Z,22.60
2018-10-18T00:01:49.324Z,22.60
2018-10-18T00:02:26.566Z,22.60
2018-10-18T00:03:04.055Z,22.60
2018-10-18T00:03:41.445Z,22.60
2018-10-18T00:04:19.144Z,22.60
2018-10-18T00:04:56.464Z,22.60
2018-10-18T00:05:34.019Z,22.60
2018-10-18T00:06:11.453Z,22.60
2018-10-18T00:06:48.783Z,22.60
2018-10-18T00:07:25.986Z,22.60
2018-10-18T00:08:03.403Z,22.60
2018-10-18T00:08:40.702Z,22.60
2018-10-18T00:09:18.164Z,22.60
2018-10-18T00:09:55.651Z,22.60
2018-10-18T00:10:33.113Z,22.60
2018-10-18T00:11:10.566Z,22.60
2018-10-18T00:11:48.007Z,22.60
2018-10-18T00:12:25.311Z,22.60
2018-10-18T00:13:02.633Z,22.60
2018-10-18T00:13:43.381Z,22.60
2018-10-18T00:14:20.892Z,22.60
2018-10-18T00:14:58.241Z,22.60
2018-10-18T00:15:35.760Z,22.60
2018-10-18T00:16:13.311Z,22.60
2018-10-18T00:16:50.599Z,22.60
2018-10-18T00:17:28.060Z,22.60
2018-10-18T00:18:05.670Z,22.60
2018-10-18T00:18:43.120Z,22.60
2018-10-18T00:19:20.604Z,22.60
2018-10-18T00:19:58.085Z,22.60
2018-10-18T00:20:35.633Z,22.60
2018-10-18T00:21:13.004Z,22.60
2018-10-18T00:21:50.596Z,22.60
2018-10-18T00:22:28.008Z,22.60
2018-10-18T00:23:05.426Z,22.60
2018-10-18T00:23:42.916Z,22.60
2018-10-18T00:24:20.279Z,22.60
2018-10-18T00:24:57.756Z,22.60
2018-10-18T00:25:35.226Z,22.60
2018-10-18T00:26:12.923Z,22.60
2018-10-18T00:26:50.206Z,22.60
2018-10-18T00:27:27.645Z,22.60
2018-10-18T00:28:05.059Z,22.60
2018-10-18T00:28:42.295Z,22.60
2018-10-18T00:29:19.746Z,22.50
2018-10-18T00:29:57.425Z,22.60
2018-10-18T00:30:34.834Z,22.60
2018-10-18T00:31:12.150Z,22.60
2018-10-18T00:31:49.469Z,22.60
2018-10-18T00:32:26.983Z,22.60
2018-10-18T00:33:04.382Z,22.60
2018-10-18T00:33:41.996Z,22.60
2018-10-18T00:34:19.263Z,22.60
2018-10-18T00:34:56.463Z,22.60
2018-10-18T00:35:33.873Z,22.60
2018-10-18T00:36:11.174Z,22.60
2018-10-18T00:36:48.604Z,22.60
2018-10-18T00:37:25.918Z,22.60
2018-10-18T00:38:03.568Z,22.60
2018-10-18T00:38:40.913Z,22.60
2018-10-18T00:39:18.470Z,22.60
2018-10-18T00:39:55.882Z,22.60
2018-10-18T00:40:33.322Z,22.60
2018-10-18T00:41:10.593Z,22.60
2018-10-18T00:41:48.072Z,22.60
2018-10-18T00:42:25.503Z,22.60
2018-10-18T00:43:02.836Z,22.60
2018-10-18T00:43:40.044Z,22.60
2018-10-18T00:44:17.504Z,22.60
2018-10-18T00:44:54.823Z,22.60
2018-10-18T00:45:32.164Z,22.60
2018-10-18T00:46:09.644Z,22.50
2018-10-18T00:46:47.113Z,22.60
2018-10-18T00:47:24.434Z,22.60
2018-10-18T00:48:01.829Z,22.30
2018-10-18T00:48:39.187Z,22.60
2018-10-18T00:49:16.674Z,22.60
2018-10-18T00:49:54.182Z,22.60
2018-10-18T00:50:31.615Z,22.60
2018-10-18T00:51:09.147Z,22.50
2018-10-18T00:51:46.601Z,22.60
2018-10-18T00:52:24.068Z,22.60
2018-10-18T00:53:01.488Z,22.60
2018-10-18T00:53:38.747Z,22.60
2018-10-18T00:54:16.244Z,22.60
2018-10-18T00:54:53.656Z,22.50
2018-10-18T00:55:31.165Z,22.60
2018-10-18T00:56:08.605Z,22.60
2018-10-18T00:56:45.937Z,22.60
2018-10-18T00:57:23.319Z,22.50
2018-10-18T00:58:00.542Z,22.50
2018-10-18T00:58:37.956Z,22.60
2018-10-18T00:59:15.258Z,22.60
2018-10-18T00:59:52.782Z,22.50
2018-10-18T01:00:30.308Z,22.60
2018-10-18T01:01:07.687Z,22.60
2018-10-18T01:01:44.957Z,22.60
2018-10-18T01:02:22.358Z,22.50
2018-10-18T01:02:59.907Z,22.60
2018-10-18T01:03:37.201Z,22.50
2018-10-18T01:04:14.698Z,22.50
2018-10-18T01:04:52.058Z,22.50
2018-10-18T01:05:29.530Z,22.50
2018-10-18T01:06:07.155Z,22.50
2018-10-18T01:06:44.518Z,22.50
2018-10-18T01:07:21.978Z,22.50
2018-10-18T01:07:59.337Z,22.50
2018-10-18T01:08:36.804Z,22.50
2018-10-18T01:09:14.189Z,22.60
2018-10-18T01:09:51.388Z,22.50
2018-10-18T01:10:28.822Z,22.50
2018-10-18T01:11:06.207Z,22.60
2018-10-18T01:11:43.629Z,22.50
2018-10-18T01:12:21.185Z,22.50
2018-10-18T01:12:58.649Z,22.60
2018-10-18T01:13:39.481Z,22.50
2018-10-18T01:14:16.987Z,22.50
2018-10-18T01:14:54.410Z,22.60
2018-10-18T01:15:31.963Z,22.50
2018-10-18T01:16:09.253Z,22.50
2018-10-18T01:16:46.466Z,22.50
2018-10-18T01:17:23.961Z,22.60
2018-10-18T01:18:01.708Z,22.50
2018-10-18T01:18:39.132Z,22.50
2018-10-18T01:19:16.417Z,22.60
2018-10-18T01:19:53.913Z,22.50
2018-10-18T01:20:31.317Z,22.50
2018-10-18T01:21:08.712Z,22.50
2018-10-18T01:21:46.062Z,22.50
2018-10-18T01:22:23.461Z,22.50
2018-10-18T01:23:00.860Z,22.50
2018-10-18T01:23:38.116Z,22.50
2018-10-18T01:24:15.628Z,22.50
2018-10-18T01:24:53.051Z,22.50
2018-10-18T01:25:30.634Z,22.50
2018-10-18T01:26:08.057Z,22.50
2018-10-18T01:26:45.432Z,22.50
2018-10-18T01:27:22.915Z,22.50
2018-10-18T01:28:00.227Z,22.50
2018-10-18T01:28:37.715Z,22.50
2018-10-18T01:29:15.182Z,22.50
2018-10-18T01:29:52.633Z,22.50
2018-10-18T01:30:29.994Z,22.50
2018-10-18T01:31:07.267Z,22.50
2018-10-18T01:31:44.803Z,22.50
2018-10-18T01:32:22.085Z,22.50
2018-10-18T01:32:59.570Z,22.50
2018-10-18T01:33:36.871Z,22.50
2018-10-18T01:34:14.291Z,22.50
2018-10-18T01:34:51.492Z,22.50
2018-10-18T01:35:28.684Z,22.50
2018-10-18T01:36:06.186Z,22.50
2018-10-18T01:36:43.634Z,22.50
2018-10-18T01:37:21.114Z,22.50
2018-10-18T01:37:58.499Z,22.50
2018-10-18T01:38:35.874Z,22.50
2018-10-18T01:39:13.414Z,22.50
2018-10-18T01:39:50.744Z,22.50
2018-10-18T01:40:28.194Z,22.50
2018-10-18T01:41:05.505Z,22.50
2018-10-18T01:41:42.784Z,22.50
2018-10-18T01:42:20.318Z,22.50
2018-10-18T01:42:57.653Z,22.50
2018-10-18T01:43:35.103Z,22.50
2018-10-18T01:44:12.555Z,22.50
2018-10-18T01:44:50.148Z,22.50
2018-10-18T01:45:27.594Z,22.50
2018-10-18T01:46:05.046Z,22.50
2018-10-18T01:46:42.365Z,22.50
2018-10-18T01:47:19.880Z,22.50
2018-10-18T01:47:57.439Z,22.50
2018-10-18T01:48:34.935Z,22.50
2018-10-18T01:49:12.346Z,22.50
2018-10-18T01:49:49.825Z,22.50
2018-10-18T01:50:27.097Z,22.50
2018-10-18T01:51:04.372Z,22.50
2018-10-18T01:51:41.816Z,22.50
2018-10-18T01:52:19.185Z,22.50
2018-10-18T01:52:56.485Z,22.50
2018-10-18T01:53:34.067Z,22.50
2018-10-18T01:54:11.551Z,22.50
2018-10-18T01:54:48.826Z,22.50
2018-10-18T01:55:26.186Z,22.50
2018-10-18T01:56:03.824Z,22.50
2018-10-18T01:56:41.055Z,22.50
2018-10-18T01:57:18.269Z,22.50
2018-10-18T01:57:55.796Z,22.50
2018-10-18T01:58:33.227Z,22.50
2018-10-18T01:59:10.495Z,22.50
2018-10-18T01:59:47.924Z,22.50
2018-10-18T02:00:25.200Z,22.50
2018-10-18T02:01:02.377Z,22.50
2018-10-18T02:01:39.646Z,22.50
2018-10-18T02:02:17.217Z,22.50
2018-10-18T02:02:54.582Z,22.50
2018-10-18T02:03:32.116Z,22.50
2018-10-18T02:04:09.536Z,22.50
2018-10-18T02:04:46.915Z,22.50
2018-10-18T02:05:24.255Z,22.50
2018-10-18T02:06:01.606Z,22.50
2018-10-18T02:06:38.756Z,22.50
2018-10-18T02:07:16.096Z,22.50
2018-10-18T02:07:53.526Z,22.50
2018-10-18T02:08:30.877Z,22.50
2018-10-18T02:09:08.349Z,22.50
2018-10-18T02:09:45.856Z,22.50
2018-10-18T02:10:23.216Z,22.50
2018-10-18T02:11:00.675Z,22.50
2018-10-18T02:11:38.105Z,22.50
2018-10-18T02:12:15.357Z,22.50
2018-10-18T02:12:52.848Z,22.50
2018-10-18T02:13:33.585Z,22.50
2018-10-18T02:14:10.897Z,22.50
2018-10-18T02:14:48.065Z,22.50
2018-10-18T02:15:25.267Z,22.50
2018-10-18T02:16:02.506Z,22.50
2018-10-18T02:16:40.016Z,22.50
2018-10-18T02:17:17.285Z,22.50
2018-10-18T02:17:54.631Z,22.50
2018-10-18T02:18:31.930Z,22.50
2018-10-18T02:19:09.252Z,22.50
2018-10-18T02:19:46.688Z,22.50
2018-10-18T02:20:24.072Z,22.50
2018-10-18T02:21:01.445Z,22.50
2018-10-18T02:21:38.623Z,22.50
2018-10-18T02:22:16.020Z,22.50
2018-10-18T02:22:53.444Z,22.50
2018-10-18T02:23:30.937Z,22.50
2018-10-18T02:24:08.353Z,22.50
2018-10-18T02:24:45.705Z,22.50
2018-10-18T02:25:22.939Z,22.50
2018-10-18T02:26:00.338Z,22.50
2018-10-18T02:26:37.727Z,22.50
2018-10-18T02:27:15.324Z,22.50
2018-10-18T02:27:52.706Z,22.50
2018-10-18T02:28:30.030Z,22.50
2018-10-18T02:29:07.328Z,22.50
2018-10-18T02:29:44.957Z,22.50
2018-10-18T02:30:22.303Z,22.50
2018-10-18T02:30:59.691Z,22.50
2018-10-18T02:31:36.969Z,22.50
2018-10-18T02:32:18.237Z,22.50
2018-10-18T02:32:55.514Z,22.50
2018-10-18T02:33:32.699Z,22.50
2018-10-18T02:34:10.057Z,22.50
2018-10-18T02:34:47.535Z,22.50
2018-10-18T02:35:24.966Z,22.50
2018-10-18T02:36:02.414Z,22.50
2018-10-18T02:36:39.915Z,22.50
2018-10-18T02:37:17.387Z,22.50
2018-10-18T02:37:58.457Z,22.50
2018-10-18T02:38:35.826Z,22.50
2018-10-18T02:39:13.316Z,22.50
2018-10-18T02:39:50.776Z,22.50
2018-10-18T02:40:28.372Z,22.50
2018-10-18T02:41:05.711Z,22.50
2018-10-18T02:41:43.118Z,22.50
2018-10-18T02:42:20.527Z,22.50
2018-10-18T02:43:01.110Z,22.50
2018-10-18T02:43:38.489Z,22.50
2018-10-18T02:44:16.108Z,22.50
2018-10-18T02:44:53.413Z,22.50
2018-10-18T02:45:30.770Z,22.50
2018-10-18T02:46:08.039Z,22.50
2018-10-18T02:46:45.299Z,22.50
2018-10-18T02:47:22.710Z,22.50
2018-10-18T02:48:00.048Z,22.50
2018-10-18T02:48:37.337Z,22.50
2018-10-18T02:49:14.744Z,22.50
2018-10-18T02:49:51.978Z,22.50
2018-10-18T02:50:29.400Z,22.50
2018-10-18T02:51:06.627Z,22.50
2018-10-18T02:51:44.019Z,22.50
2018-10-18T02:52:21.290Z,22.50
2018-10-18T02:52:58.708Z,22.50
2018-10-18T02:53:36.101Z,22.50
2018-10-18T02:54:13.697Z,22.50
2018-10-18T02:54:51.117Z,22.50
2018-10-18T02:55:28.539Z,22.50
2018-10-18T02:56:05.918Z,22.40
2018-10-18T02:56:43.385Z,22.50
2018-10-18T02:57:20.745Z,22.50
2018-10-18T02:57:58.140Z,22.50
2018-10-18T02:58:35.510Z,22.50
2018-10-18T02:59:13.038Z,22.50
2018-10-18T02:59:50.478Z,22.50
2018-10-18T03:00:27.727Z,22.50
2018-10-18T03:01:05.217Z,22.40
2018-10-18T03:01:42.726Z,22.50
2018-10-18T03:02:20.038Z,22.50
2018-10-18T03:02:57.526Z,22.50
2018-10-18T03:03:34.977Z,22.50
2018-10-18T03:04:12.307Z,22.50
2018-10-18T03:04:49.647Z,22.50
2018-10-18T03:05:27.106Z,22.50
2018-10-18T03:06:04.559Z,22.50
2018-10-18T03:06:41.838Z,22.50
2018-10-18T03:07:19.386Z,22.50
2018-10-18T03:07:56.743Z,22.50
2018-10-18T03:08:34.262Z,22.50
2018-10-18T03:09:11.710Z,22.50
2018-10-18T03:09:48.883Z,22.50
2018-10-18T03:10:26.059Z,22.50
2018-10-18T03:11:03.353Z,22.50
2018-10-18T03:11:40.715Z,22.50
2018-10-18T03:12:18.358Z,22.50
2018-10-18T03:12:55.792Z,22.50
2018-10-18T03:13:33.280Z,22.50
2018-10-18T03:14:10.710Z,22.50
2018-10-18T03:14:48.020Z,22.50
2018-10-18T03:15:25.370Z,22.50
2018-10-18T03:16:02.634Z,22.50
2018-10-18T03:16:40.047Z,22.50
2018-10-18T03:17:17.443Z,22.50
2018-10-18T03:17:54.685Z,22.50
2018-10-18T03:18:31.937Z,22.50
2018-10-18T03:19:09.377Z,22.50
2018-10-18T03:19:46.854Z,22.50
2018-10-18T03:20:24.236Z,22.50
2018-10-18T03:21:01.471Z,22.50
2018-10-18T03:21:38.896Z,22.50
2018-10-18T03:22:16.387Z,22.50
2018-10-18T03:22:53.746Z,22.50
2018-10-18T03:23:31.084Z,22.50
2018-10-18T03:24:08.524Z,22.40
2018-10-18T03:24:45.906Z,22.50
2018-10-18T03:25:23.336Z,22.50
2018-10-18T03:26:00.759Z,22.50
2018-10-18T03:26:38.165Z,22.40
2018-10-18T03:27:15.350Z,22.50
2018-10-18T03:27:52.540Z,22.40
2018-10-18T03:28:29.820Z,22.50
2018-10-18T03:29:07.283Z,22.50
2018-10-18T03:29:44.763Z,22.50
2018-10-18T03:30:22.277Z,22.50
2018-10-18T03:30:59.565Z,22.50
2018-10-18T03:31:36.951Z,22.50
2018-10-18T03:32:14.417Z,22.40
2018-10-18T03:32:51.726Z,22.40
2018-10-18T03:33:28.915Z,22.40
2018-10-18T03:34:06.362Z,22.50
2018-10-18T03:34:43.783Z,22.50
2018-10-18T03:35:21.213Z,22.50
2018-10-18T03:35:58.559Z,22.50
2018-10-18T03:36:35.772Z,22.50
2018-10-18T03:37:13.205Z,22.50
2018-10-18T03:37:50.529Z,22.40
2018-10-18T03:38:27.704Z,22.50
2018-10-18T03:39:04.918Z,22.50
2018-10-18T03:39:42.167Z,22.50
2018-10-18T03:40:19.461Z,22.40
2018-10-18T03:40:56.687Z,22.40
2018-10-18T03:41:34.109Z,22.40
2018-10-18T03:42:11.533Z,22.50
2018-10-18T03:42:49.018Z,22.40
2018-10-18T03:43:26.358Z,22.50
2018-10-18T03:44:03.691Z,22.40
2018-10-18T03:44:41.096Z,22.40
2018-10-18T03:45:18.498Z,22.50
2018-10-18T03:45:55.926Z,22.40
2018-10-18T03:46:33.266Z,22.40
2018-10-18T03:47:10.597Z,22.40
2018-10-18T03:48:24.731Z,22.40
2018-10-18T03:49:02.300Z,22.40
2018-10-18T03:49:39.554Z,22.40
2018-10-18T03:50:16.935Z,22.50
2018-10-18T03:50:54.199Z,22.40
2018-10-18T03:51:31.714Z,22.40
2018-10-18T03:52:09.171Z,22.40
2018-10-18T03:52:46.613Z,22.40
2018-10-18T03:53:23.788Z,22.40
2018-10-18T03:54:01.368Z,22.40
2018-10-18T03:54:38.656Z,22.40
2018-10-18T03:55:15.858Z,22.50
2018-10-18T03:55:53.281Z,22.40
2018-10-18T03:56:30.550Z,22.40
2018-10-18T03:57:08.004Z,22.40
2018-10-18T03:57:45.402Z,22.40
2018-10-18T03:58:22.843Z,22.40
2018-10-18T03:59:00.393Z,22.40
2018-10-18T03:59:37.804Z,22.40
2018-10-18T04:00:15.342Z,22.50
2018-10-18T04:00:52.622Z,22.40
2018-10-18T04:01:30.020Z,22.50
2018-10-18T04:02:07.521Z,22.40
2018-10-18T04:02:44.945Z,22.40
2018-10-18T04:03:22.378Z,22.40
2018-10-18T04:03:59.848Z,22.40
2018-10-18T04:04:37.400Z,22.40
2018-10-18T04:05:14.843Z,22.40
2018-10-18T04:05:52.320Z,22.40
2018-10-18T04:06:29.619Z,22.40
2018-10-18T04:07:07.038Z,22.40
2018-10-18T04:07:44.417Z,22.40
2018-10-18T04:08:22.021Z,22.40
2018-10-18T04:08:59.388Z,22.40
2018-10-18T04:09:36.700Z,22.40
2018-10-18T04:10:14.231Z,22.40
2018-10-18T04:10:51.740Z,22.40
2018-10-18T04:11:29.232Z,22.40
2018-10-18T04:12:06.711Z,22.40
2018-10-18T04:12:44.149Z,22.40
2018-10-18T04:13:21.389Z,22.40
2018-10-18T04:13:58.595Z,22.40
2018-10-18T04:14:35.910Z,22.10
2018-10-18T04:15:13.458Z,22.40
2018-10-18T04:15:50.807Z,22.40
2018-10-18T04:16:28.265Z,22.40
2018-10-18T04:17:05.475Z,22.40
2018-10-18T04:17:42.837Z,22.40
2018-10-18T04:18:20.432Z,22.40
2018-10-18T04:18:57.826Z,22.40
2018-10-18T04:19:35.205Z,22.40
2018-10-18T04:20:12.477Z,22.40
2018-10-18T04:20:50.017Z,22.40
2018-10-18T04:21:27.340Z,22.40
2018-10-18T04:22:04.519Z,22.40
2018-10-18T04:22:41.969Z,22.40
2018-10-18T04:23:19.137Z,22.40
2018-10-18T04:23:56.768Z,22.40
2018-10-18T04:24:33.998Z,22.40
2018-10-18T04:25:11.447Z,22.40
2018-10-18T04:25:48.638Z,22.40
2018-10-18T04:26:26.107Z,22.40
2018-10-18T04:27:03.394Z,22.40
2018-10-18T04:27:40.859Z,22.40
2018-10-18T04:28:18.320Z,22.40
2018-10-18T04:28:55.711Z,22.40
2018-10-18T04:29:33.169Z,22.40
2018-10-18T04:30:10.529Z,22.40
2018-10-18T04:30:47.948Z,22.40
2018-10-18T04:31:25.493Z,22.40
2018-10-18T04:32:02.769Z,22.40
2018-10-18T04:32:40.301Z,22.40
2018-10-18T04:33:17.645Z,22.40
2018-10-18T04:33:55.129Z,22.40
2018-10-18T04:34:32.660Z,22.40
2018-10-18T04:35:10.107Z,22.40
2018-10-18T04:35:47.529Z,22.40
2018-10-18T04:36:25.079Z,22.40
2018-10-18T04:37:02.390Z,22.40
2018-10-18T04:37:39.824Z,22.40
2018-10-18T04:38:17.309Z,22.50
2018-10-18T04:38:54.717Z,22.40
2018-10-18T04:39:32.164Z,22.40
2018-10-18T04:40:09.491Z,22.40
2018-10-18T04:40:46.974Z,22.40
2018-10-18T04:41:24.531Z,22.40
2018-10-18T04:42:01.990Z,22.40
2018-10-18T04:42:39.331Z,22.40
2018-10-18T04:43:16.665Z,22.40
2018-10-18T04:43:54.051Z,22.40
2018-10-18T04:44:31.401Z,22.40
2018-10-18T04:45:08.762Z,22.40
2018-10-18T04:45:46.094Z,22.40
2018-10-18T04:46:23.352Z,22.40
2018-10-18T04:47:00.999Z,22.40
2018-10-18T04:47:38.386Z,22.40
2018-10-18T04:48:19.503Z,22.40
2018-10-18T04:48:56.909Z,22.40
2018-10-18T04:49:34.232Z,22.40
2018-10-18T04:50:11.655Z,22.40
2018-10-18T04:50:48.943Z,22.40
2018-10-18T04:51:26.334Z,22.40
2018-10-18T04:52:03.840Z,22.40
2018-10-18T04:52:41.262Z,22.40
2018-10-18T04:53:22.269Z,22.40
2018-10-18T04:53:59.679Z,22.40
2018-10-18T04:54:36.882Z,22.40
2018-10-18T04:55:14.354Z,22.40
2018-10-18T04:55:51.783Z,22.40
2018-10-18T04:56:29.207Z,22.40
2018-10-18T04:57:06.524Z,22.40
2018-10-18T04:57:44.003Z,22.40
2018-10-18T04:58:24.830Z,22.40
2018-10-18T04:59:02.251Z,22.40
2018-10-18T04:59:39.538Z,22.40
2018-10-18T05:00:16.992Z,22.40
2018-10-18T05:00:54.439Z,22.40
2018-10-18T05:01:31.858Z,22.40
2018-10-18T05:02:09.313Z,22.40
2018-10-18T05:02:46.826Z,22.40
2018-10-18T05:03:24.159Z,22.40
2018-10-18T05:04:01.346Z,22.40
2018-10-18T05:04:38.642Z,22.40
2018-10-18T05:05:16.191Z,22.40
2018-10-18T05:05:53.567Z,22.40
2018-10-18T05:06:31.188Z,22.40
2018-10-18T05:07:08.700Z,22.40
2018-10-18T05:07:46.094Z,22.40
2018-10-18T05:08:23.447Z,22.40
2018-10-18T05:09:00.966Z,22.40
2018-10-18T05:09:38.362Z,22.40
2018-10-18T05:10:15.781Z,22.40
2018-10-18T05:10:53.103Z,22.40
2018-10-18T05:11:30.648Z,22.40
2018-10-18T05:12:07.989Z,22.40
2018-10-18T05:12:45.490Z,22.40
2018-10-18T05:13:22.782Z,22.40
2018-10-18T05:14:00.093Z,22.40
2018-10-18T05:14:37.533Z,22.40
2018-10-18T05:15:14.734Z,22.40
2018-10-18T05:15:52.104Z,22.40
2018-10-18T05:16:29.373Z,22.40
2018-10-18T05:17:06.773Z,22.40
2018-10-18T05:17:44.310Z,22.40
2018-10-18T05:18:21.772Z,22.40
2018-10-18T05:18:59.173Z,22.40
2018-10-18T05:19:36.484Z,22.40
2018-10-18T05:20:13.923Z,22.40
2018-10-18T05:20:51.264Z,22.40
2018-10-18T05:21:28.762Z,22.40
2018-10-18T05:22:06.143Z,22.40
2018-10-18T05:22:43.344Z,22.40
2018-10-18T05:23:21.007Z,22.40
2018-10-18T05:23:58.891Z,22.40
2018-10-18T05:24:36.048Z,22.40
2018-10-18T05:25:13.367Z,22.40
2018-10-18T05:25:50.797Z,22.40
2018-10-18T05:26:28.105Z,22.40
2018-10-18T05:27:05.547Z,22.40
2018-10-18T05:27:42.840Z,22.40
2018-10-18T05:28:20.266Z,22.40
2018-10-18T05:28:57.723Z,22.40
2018-10-18T05:29:35.017Z,22.40
2018-10-18T05:30:12.309Z,22.40
2018-10-18T05:30:49.706Z,22.40
2018-10-18T05:31:26.951Z,22.40
2018-10-18T05:32:04.419Z,22.40
2018-10-18T05:32:41.719Z,22.40
2018-10-18T05:33:19.155Z,22.40
2018-10-18T05:33:56.550Z,22.40
2018-10-18T05:34:33.882Z,22.40
2018-10-18T05:35:11.177Z,22.40
2018-10-18T05:35:48.520Z,22.40
2018-10-18T05:36:25.977Z,22.40
2018-10-18T05:37:03.468Z,22.40
2018-10-18T05:37:40.981Z,22.40
2018-10-18T05:38:18.154Z,22.40
2018-10-18T05:38:55.675Z,22.40
2018-10-18T05:39:33.101Z,22.40
2018-10-18T05:40:10.540Z,22.40
2018-10-18T05:40:47.788Z,22.40
2018-10-18T05:42:06.729Z,22.40
2018-10-18T05:42:44.171Z,22.40
2018-10-18T05:43:21.638Z,22.40
2018-10-18T05:43:58.974Z,22.40
2018-10-18T05:44:36.417Z,22.40
2018-10-18T05:45:13.812Z,22.40
2018-10-18T05:45:51.247Z,22.40
2018-10-18T05:46:28.701Z,22.40
2018-10-18T05:47:06.085Z,22.40
2018-10-18T05:47:43.548Z,22.40
2018-10-18T05:48:21.049Z,22.40
2018-10-18T05:48:58.625Z,22.40
2018-10-18T05:49:35.941Z,22.40
2018-10-18T05:50:13.442Z,22.40
2018-10-18T05:50:50.792Z,22.40
2018-10-18T05:51:28.224Z,22.40
2018-10-18T05:52:05.473Z,22.40
2018-10-18T05:52:42.833Z,22.40
2018-10-18T05:53:20.179Z,22.40
2018-10-18T05:53:57.661Z,22.40
2018-10-18T05:54:34.908Z,22.40
2018-10-18T05:55:12.404Z,22.40
2018-10-18T05:55:49.402Z,22.40
2018-10-18T05:56:26.546Z,22.40
2018-10-18T05:57:03.895Z,22.40
2018-10-18T05:57:41.053Z,22.40
2018-10-18T05:58:18.372Z,22.40
2018-10-18T05:58:55.600Z,22.40
2018-10-18T05:59:32.775Z,22.40
2018-10-18T06:00:10.098Z,22.40
2018-10-18T06:00:47.311Z,22.40
2018-10-18T06:01:24.778Z,22.40
2018-10-18T06:02:02.032Z,22.40
2018-10-18T06:02:43.041Z,22.40
2018-10-18T06:03:20.330Z,22.40
2018-10-18T06:03:57.683Z,22.40
2018-10-18T06:04:35.123Z,22.40
2018-10-18T06:05:12.513Z,22.40
2018-10-18T06:05:50.110Z,22.40
2018-10-18T06:06:27.504Z,22.40
2018-10-18T06:07:04.937Z,22.40
2018-10-18T06:07:42.316Z,22.40
2018-10-18T06:08:19.715Z,22.40
2018-10-18T06:08:57.104Z,22.40
2018-10-18T06:09:34.387Z,22.40
2018-10-18T06:10:11.832Z,22.10
2018-10-18T06:10:49.216Z,22.40
2018-10-18T06:11:26.776Z,22.40
2018-10-18T06:12:04.120Z,22.40
2018-10-18T06:12:41.593Z,22.40
2018-10-18T06:13:18.931Z,22.40
2018-10-18T06:13:56.202Z,22.40
2018-10-18T06:14:33.656Z,22.40
2018-10-18T06:15:11.033Z,22.40
2018-10-18T06:15:48.383Z,22.40
2018-10-18T06:16:25.742Z,22.40
2018-10-18T06:17:02.989Z,22.40
2018-10-18T06:17:40.352Z,22.40
2018-10-18T06:18:55.855Z,22.40
2018-10-18T06:19:33.071Z,22.40
2018-10-18T06:20:10.220Z,22.40
2018-10-18T06:20:47.470Z,22.40
2018-10-18T06:21:24.944Z,22.40
2018-10-18T06:22:02.267Z,22.40
2018-10-18T06:22:39.642Z,22.40
2018-10-18T06:23:17.060Z,22.40
2018-10-18T06:23:54.354Z,22.40
2018-10-18T06:24:31.742Z,22.40
2018-10-18T06:25:08.968Z,22.40
2018-10-18T06:25:46.271Z,22.40
2018-10-18T06:26:23.423Z,22.40
2018-10-18T06:27:00.856Z,22.40
2018-10-18T06:27:38.237Z,22.40
2018-10-18T06:28:15.383Z,22.40
2018-10-18T06:28:52.501Z,22.40
2018-10-18T06:29:29.944Z,22.40
2018-10-18T06:30:07.124Z,22.40
2018-10-18T06:30:44.495Z,22.40
2018-10-18T06:31:21.875Z,22.40
2018-10-18T06:32:42.545Z,22.40
2018-10-18T06:33:19.773Z,22.40
2018-10-18T06:33:56.936Z,22.40
2018-10-18T06:34:34.146Z,22.40
2018-10-18T06:35:11.464Z,22.40
2018-10-18T06:35:48.792Z,22.40
2018-10-18T06:36:26.160Z,22.40
2018-10-18T06:37:03.511Z,22.40
2018-10-18T06:37:40.887Z,22.40
2018-10-18T06:39:03.082Z,22.40
2018-10-18T06:39:40.408Z,22.50
2018-10-18T06:40:17.635Z,22.40
2018-10-18T06:40:55.018Z,22.40
2018-10-18T06:41:32.379Z,22.40
2018-10-18T06:42:09.687Z,22.40
2018-10-18T06:42:46.954Z,22.50
2018-10-18T06:43:24.317Z,22.40
2018-10-18T06:44:02.477Z,22.50
2018-10-18T06:44:39.974Z,22.50
2018-10-18T06:45:17.384Z,22.50
2018-10-18T06:45:54.806Z,22.50
2018-10-18T06:46:31.995Z,22.50
2018-10-18T06:47:09.430Z,22.50
2018-10-18T06:47:46.881Z,22.60
2018-10-18T06:48:23.994Z,22.50
2018-10-18T06:49:01.432Z,22.50
2018-10-18T06:49:38.793Z,22.60
2018-10-18T06:50:16.165Z,22.60
2018-10-18T06:50:53.296Z,22.60
2018-10-18T06:51:30.612Z,22.60
2018-10-18T06:52:07.933Z,22.60
2018-10-18T06:52:45.283Z,22.60
2018-10-18T06:53:22.453Z,22.60
2018-10-18T06:53:59.828Z,22.60
2018-10-18T06:54:37.162Z,22.60
2018-10-18T06:55:14.722Z,22.60
2018-10-18T06:55:52.037Z,22.70
2018-10-18T06:56:29.426Z,22.70
2018-10-18T06:57:06.773Z,22.70
2018-10-18T06:57:44.081Z,22.70
2018-10-18T06:58:21.542Z,22.70
2018-10-18T06:58:58.843Z,22.70
2018-10-18T06:59:36.158Z,22.70
2018-10-18T07:00:13.397Z,22.70
2018-10-18T07:00:50.831Z,22.70
2018-10-18T07:01:28.231Z,22.70
2018-10-18T07:02:05.633Z,22.70
2018-10-18T07:02:42.775Z,22.70
2018-10-18T07:03:20.144Z,22.70
2018-10-18T07:03:57.519Z,22.70
2018-10-18T07:04:34.949Z,22.70
2018-10-18T07:05:12.389Z,22.70
2018-10-18T07:05:49.750Z,22.70
2018-10-18T07:06:27.102Z,22.70
2018-10-18T07:07:04.492Z,22.70
2018-10-18T07:07:41.619Z,22.70
2018-10-18T07:08:18.881Z,22.70
2018-10-18T07:08:56.234Z,22.70
2018-10-18T07:09:33.450Z,22.70
2018-10-18T07:10:10.929Z,22.70
2018-10-18T07:10:48.295Z,22.70
2018-10-18T07:11:25.727Z,22.70
2018-10-18T07:12:02.998Z,22.80
2018-10-18T07:12:40.270Z,22.70
2018-10-18T07:13:17.564Z,22.70
2018-10-18T07:13:54.760Z,23.10
2018-10-18T07:14:31.892Z,22.80
2018-10-18T07:15:09.199Z,22.80
2018-10-18T07:15:46.497Z,22.80
2018-10-18T07:16:23.826Z,22.80
2018-10-18T07:17:04.929Z,22.80
2018-10-18T07:17:42.410Z,22.80
2018-10-18T07:18:19.501Z,22.80
2018-10-18T07:18:56.882Z,22.80
2018-10-18T07:19:34.389Z,22.80
2018-10-18T07:20:11.599Z,22.80
2018-10-18T07:20:48.818Z,22.80
2018-10-18T07:21:26.048Z,22.80
2018-10-18T07:22:03.259Z,22.80
2018-10-18T07:22:40.669Z,22.80
2018-10-18T07:23:21.320Z,22.80
2018-10-18T07:23:58.834Z,22.80
2018-10-18T07:24:36.259Z,22.80
2018-10-18T07:25:13.569Z,22.80
2018-10-18T07:25:50.940Z,22.80
2018-10-18T07:26:28.200Z,22.80
2018-10-18T07:27:05.613Z,22.70
2018-10-18T07:27:42.856Z,22.80
2018-10-18T07:28:20.280Z,22.80
2018-10-18T07:28:57.760Z,22.80
2018-10-18T07:29:35.069Z,22.80
2018-10-18T07:30:12.343Z,22.80
2018-10-18T07:30:49.931Z,22.80
2018-10-18T07:31:27.333Z,22.80
2018-10-18T07:32:04.715Z,22.80
2018-10-18T07:32:42.029Z,23.20
2018-10-18T07:33:19.199Z,22.80
2018-10-18T07:33:56.674Z,22.80
2018-10-18T07:34:34.052Z,22.80
2018-10-18T07:35:11.468Z,22.80
2018-10-18T07:35:48.859Z,22.80
2018-10-18T07:36:26.219Z,22.80
2018-10-18T07:37:03.588Z,22.80
2018-10-18T07:37:40.774Z,22.80
2018-10-18T07:38:18.218Z,22.20
2018-10-18T07:38:55.477Z,22.80
2018-10-18T07:39:32.957Z,22.80
2018-10-18T07:40:10.258Z,22.80
2018-10-18T07:40:47.577Z,22.80
2018-10-18T07:41:24.707Z,22.80
2018-10-18T07:42:02.072Z,22.80
2018-10-18T07:42:39.297Z,22.80
2018-10-18T07:43:16.578Z,22.80
2018-10-18T07:43:53.808Z,22.80
2018-10-18T07:44:31.243Z,22.80
2018-10-18T07:45:08.616Z,22.80
2018-10-18T07:45:46.000Z,22.80
2018-10-18T07:46:23.508Z,22.80
2018-10-18T07:47:00.976Z,22.80
2018-10-18T07:47:38.127Z,22.80
2018-10-18T07:48:15.636Z,22.80
2018-10-18T07:48:52.778Z,22.80
2018-10-18T07:49:30.028Z,22.80
2018-10-18T07:50:07.437Z,22.80
2018-10-18T07:50:44.967Z,22.80
2018-10-18T07:51:22.363Z,22.80
2018-10-18T07:51:59.613Z,22.80
2018-10-18T07:52:37.097Z,22.80
2018-10-18T07:53:14.637Z,22.80
2018-10-18T07:53:51.723Z,22.80
2018-10-18T07:54:28.859Z,22.90
2018-10-18T07:55:06.092Z,22.80
2018-10-18T07:55:43.357Z,22.80
2018-10-18T07:56:20.681Z,22.80
2018-10-18T07:56:57.869Z,22.80
2018-10-18T07:57:35.249Z,22.80
2018-10-18T07:58:12.550Z,22.80
2018-10-18T07:58:49.734Z,22.80
2018-10-18T07:59:26.954Z,22.80
2018-10-18T08:00:04.300Z,22.80
2018-10-18T08:00:41.685Z,22.80
2018-10-18T08:01:19.003Z,22.80
2018-10-18T08:01:56.330Z,22.80
2018-10-18T08:02:33.805Z,22.80
2018-10-18T08:03:11.288Z,22.80
2018-10-18T08:03:48.529Z,22.80
2018-10-18T08:04:25.696Z,22.80
2018-10-18T08:05:02.878Z,22.80
2018-10-18T08:05:40.163Z,22.80